createdAt,value
2023-03-21T00:00:54.560Z,62.44
2023-03-21T00:03:25.535Z,62.43
2023-03-21T00:05:56.288Z,62.55
2023-03-21T00:08:28.226Z,62.51
2023-03-21T00:11:00.813Z,62.75
2023-03-21T00:13:33.523Z,62.87
2023-03-21T00:16:13.213Z,62.85
2023-03-21T00:18:52.691Z,62.70
2023-03-21T00:24:19.463Z,62.81
2023-03-21T00:26:49.938Z,62.66
2023-03-21T00:29:21.395Z,62.79
2023-03-21T00:31:51.850Z,62.86
2023-03-21T00:34:31.766Z,62.82
2023-03-21T00:37:14.676Z,62.59
2023-03-21T00:39:49.034Z,62.86
2023-03-21T00:42:19.740Z,62.95
2023-03-21T00:44:50.245Z,62.91
2023-03-21T00:47:20.776Z,62.72
2023-03-21T00:49:53.829Z,62.81
2023-03-21T00:52:38.081Z,63.02
2023-03-21T00:55:14.657Z,62.62
2023-03-21T00:57:50.153Z,62.83
2023-03-21T01:00:28.682Z,62.89
2023-03-21T01:03:17.463Z,62.93
2023-03-21T01:06:05.658Z,62.72
2023-03-21T01:08:51.313Z,63.22
2023-03-21T01:11:25.414Z,63.02
2023-03-21T01:14:07.389Z,62.41
2023-03-21T01:16:46.019Z,62.10
2023-03-21T01:19:27.451Z,61.74
2023-03-21T01:22:01.845Z,61.26
2023-03-21T01:24:33.797Z,60.67
2023-03-21T01:27:06.088Z,60.56
2023-03-21T01:29:36.978Z,60.40
2023-03-21T01:32:07.792Z,60.39
2023-03-21T01:34:38.505Z,60.46
2023-03-21T01:37:09.480Z,60.30
2023-03-21T01:39:46.938Z,60.18
2023-03-21T01:42:17.744Z,60.05
2023-03-21T01:45:01.080Z,60.06
2023-03-21T01:47:45.761Z,59.93
2023-03-21T01:50:37.004Z,60.18
2023-03-21T01:53:23.280Z,60.21
2023-03-21T01:55:54.346Z,60.11
2023-03-21T01:58:48.624Z,60.49
2023-03-21T02:01:34.770Z,60.42
2023-03-21T02:04:05.079Z,60.28
2023-03-21T02:06:43.945Z,60.58
2023-03-21T02:09:36.217Z,60.71
2023-03-21T02:12:08.825Z,60.81
2023-03-21T02:14:41.272Z,60.72
2023-03-21T02:17:29.651Z,60.60
2023-03-21T02:20:46.738Z,60.62
2023-03-21T02:23:56.143Z,60.57
2023-03-21T02:26:42.274Z,60.44
2023-03-21T02:29:35.846Z,60.73
2023-03-21T02:36:26.382Z,60.83
2023-03-21T02:38:58.588Z,60.70
2023-03-21T02:41:40.510Z,60.68
2023-03-21T02:44:19.363Z,60.97
2023-03-21T02:47:05.399Z,60.99
2023-03-21T02:49:43.239Z,61.13
2023-03-21T02:52:35.652Z,60.97
2023-03-21T02:55:15.576Z,61.06
2023-03-21T02:58:06.872Z,60.97
2023-03-21T03:00:44.880Z,61.13
2023-03-21T03:03:28.062Z,61.44
2023-03-21T03:06:12.873Z,61.29
2023-03-21T03:09:02.717Z,61.14
2023-03-21T03:11:36.678Z,61.45
2023-03-21T03:14:41.943Z,61.40
2023-03-21T03:17:26.817Z,61.54
2023-03-21T03:20:16.629Z,61.42
2023-03-21T03:22:57.469Z,61.33
2023-03-21T03:25:42.467Z,61.40
2023-03-21T03:28:18.072Z,61.42
2023-03-21T03:31:07.105Z,61.45
2023-03-21T03:33:45.473Z,61.57
2023-03-21T03:36:31.142Z,61.18
2023-03-21T03:39:06.727Z,61.39
2023-03-21T03:42:05.513Z,61.39
2023-03-21T03:44:36.370Z,61.62
2023-03-21T03:47:17.519Z,61.64
2023-03-21T03:49:58.354Z,61.69
2023-03-21T03:52:40.055Z,61.64
2023-03-21T03:55:18.647Z,61.67
2023-03-21T03:57:50.652Z,61.67
2023-03-21T04:00:22.351Z,61.70
2023-03-21T04:02:53.461Z,61.58
2023-03-21T04:05:26.712Z,61.72
2023-03-21T04:07:57.155Z,61.67
2023-03-21T04:10:36.822Z,61.43
2023-03-21T04:13:07.606Z,61.42
2023-03-21T04:16:04.842Z,61.55
2023-03-21T04:18:35.908Z,61.12
2023-03-21T04:21:10.831Z,61.58
2023-03-21T04:23:42.503Z,61.49
2023-03-21T04:26:13.081Z,61.61
2023-03-21T04:28:49.598Z,61.49
2023-03-21T04:31:54.559Z,61.59
2023-03-21T04:34:28.318Z,61.56
2023-03-21T04:37:01.080Z,61.67
2023-03-21T04:39:31.515Z,61.80
2023-03-21T04:42:02.488Z,61.77
2023-03-21T04:44:32.963Z,61.72
2023-03-21T04:47:03.772Z,61.43
2023-03-21T04:49:35.003Z,61.64
2023-03-21T04:52:06.163Z,61.58
2023-03-21T04:54:37.712Z,61.56
2023-03-21T04:57:08.974Z,61.70
2023-03-21T04:59:40.608Z,61.58
2023-03-21T05:02:11.059Z,61.78
2023-03-21T05:04:41.859Z,61.77
2023-03-21T05:07:12.901Z,61.84
2023-03-21T05:09:43.401Z,61.83
2023-03-21T05:12:13.877Z,61.83
2023-03-21T05:14:44.549Z,62.03
2023-03-21T05:17:24.987Z,61.85
2023-03-21T05:19:56.509Z,61.97
2023-03-21T05:22:29.053Z,62.09
2023-03-21T05:25:00.232Z,62.29
2023-03-21T05:28:02.181Z,62.29
2023-03-21T05:30:34.008Z,62.28
2023-03-21T05:33:05.086Z,62.03
2023-03-21T05:35:36.008Z,62.23
2023-03-21T05:38:08.202Z,62.00
2023-03-21T05:40:51.520Z,61.98
2023-03-21T05:43:22.072Z,62.23
2023-03-21T05:45:52.678Z,62.01
2023-03-21T05:48:23.227Z,61.99
2023-03-21T05:51:05.875Z,62.15
2023-03-21T05:53:36.490Z,62.07
2023-03-21T05:56:08.853Z,61.93
2023-03-21T05:58:54.856Z,61.54
2023-03-21T06:01:26.046Z,61.63
2023-03-21T06:04:09.974Z,61.66
2023-03-21T06:06:40.515Z,61.52
2023-03-21T06:09:11.365Z,61.58
2023-03-21T06:11:48.586Z,61.68
2023-03-21T06:14:26.288Z,61.36
2023-03-21T06:17:15.963Z,61.58
2023-03-21T06:19:51.039Z,61.39
2023-03-21T06:22:27.026Z,61.26
2023-03-21T06:24:57.710Z,61.58
2023-03-21T06:27:28.341Z,61.67
2023-03-21T06:29:59.471Z,62.02
2023-03-21T06:32:30.918Z,61.57
2023-03-21T06:35:06.634Z,61.31
2023-03-21T06:37:38.340Z,61.36
2023-03-21T06:40:10.704Z,61.16
2023-03-21T06:42:41.220Z,61.37
2023-03-21T06:45:14.995Z,61.11
2023-03-21T06:47:46.436Z,61.24
2023-03-21T06:50:27.673Z,61.15
2023-03-21T06:52:59.458Z,61.17
2023-03-21T06:55:30.984Z,61.23
2023-03-21T06:58:02.855Z,61.28
2023-03-21T07:00:34.072Z,60.89
2023-03-21T07:03:04.715Z,60.75
2023-03-21T07:05:36.175Z,60.87
2023-03-21T07:08:10.387Z,60.49
2023-03-21T07:10:45.544Z,60.50
2023-03-21T07:13:16.782Z,60.43
2023-03-21T07:16:01.237Z,60.37
2023-03-21T07:18:32.366Z,60.39
2023-03-21T07:21:02.954Z,60.47
2023-03-21T07:23:33.445Z,60.30
2023-03-21T07:26:04.184Z,60.04
2023-03-21T07:28:35.020Z,60.14
2023-03-21T07:31:09.423Z,60.43
2023-03-21T07:33:39.957Z,60.50
2023-03-21T07:36:13.695Z,60.60
2023-03-21T07:38:45.953Z,60.72
2023-03-21T07:43:53.641Z,61.30
2023-03-21T07:46:24.176Z,61.20
2023-03-21T07:48:54.642Z,61.90
2023-03-21T07:51:26.053Z,62.06
2023-03-21T07:53:56.755Z,62.23
2023-03-21T07:56:27.262Z,62.35
2023-03-21T07:58:57.699Z,62.46
2023-03-21T08:01:28.808Z,62.21
2023-03-21T08:03:59.310Z,62.40
2023-03-21T08:06:32.470Z,62.67
2023-03-21T08:09:03.758Z,62.29
2023-03-21T08:11:34.255Z,62.28
2023-03-21T08:14:04.810Z,62.17
2023-03-21T08:16:35.509Z,61.89
2023-03-21T08:19:05.989Z,61.96
2023-03-21T08:21:39.231Z,61.65
2023-03-21T08:24:09.900Z,61.37
2023-03-21T08:26:40.423Z,60.88
2023-03-21T08:29:10.924Z,60.77
2023-03-21T08:31:42.479Z,60.57
2023-03-21T08:34:13.767Z,60.88
2023-03-21T08:36:44.486Z,60.86
2023-03-21T08:39:15.028Z,60.88
2023-03-21T08:41:45.528Z,61.05
2023-03-21T08:44:17.004Z,61.31
2023-03-21T08:46:47.486Z,61.21
2023-03-21T08:49:17.982Z,61.10
2023-03-21T08:51:48.430Z,60.99
2023-03-21T08:54:23.277Z,60.90
2023-03-21T08:56:53.852Z,61.05
2023-03-21T08:59:24.386Z,61.04
2023-03-21T09:01:55.146Z,61.19
2023-03-21T09:04:27.290Z,61.32
2023-03-21T09:06:58.020Z,61.18
2023-03-21T09:09:29.041Z,60.99
2023-03-21T09:11:59.765Z,60.96
2023-03-21T09:14:30.293Z,61.15
2023-03-21T09:17:00.750Z,61.19
2023-03-21T09:19:31.906Z,61.23
2023-03-21T09:22:02.746Z,60.93
2023-03-21T09:24:33.214Z,60.72
2023-03-21T09:27:04.037Z,60.60
2023-03-21T09:29:35.068Z,60.42
2023-03-21T09:32:06.912Z,60.41
2023-03-21T09:34:41.426Z,60.26
2023-03-21T09:37:13.301Z,59.84
2023-03-21T09:39:44.942Z,60.04
2023-03-21T09:42:30.956Z,60.15
2023-03-21T09:45:12.943Z,60.36
2023-03-21T09:47:53.518Z,60.09
2023-03-21T09:50:31.817Z,59.91
2023-03-21T09:53:07.158Z,59.75
2023-03-21T09:55:41.616Z,59.36
2023-03-21T09:58:29.127Z,59.39
2023-03-21T10:01:07.605Z,59.47
2023-03-21T10:03:39.073Z,59.54
2023-03-21T10:06:15.809Z,59.19
2023-03-21T10:08:48.728Z,59.08
2023-03-21T10:11:25.616Z,58.67
2023-03-21T10:14:00.865Z,58.79
2023-03-21T10:16:34.157Z,58.66
2023-03-21T10:19:11.745Z,58.44
2023-03-21T10:22:03.312Z,58.23
2023-03-21T10:24:36.375Z,58.22
2023-03-21T10:27:07.398Z,58.18
2023-03-21T10:29:43.649Z,58.16
2023-03-21T10:32:18.328Z,57.96
2023-03-21T10:34:51.616Z,57.70
2023-03-21T10:37:23.144Z,57.80
2023-03-21T10:39:56.006Z,57.90
2023-03-21T10:42:31.402Z,57.95
2023-03-21T10:45:02.184Z,57.59
2023-03-21T10:47:35.444Z,57.67
2023-03-21T10:50:10.883Z,57.44
2023-03-21T10:52:50.994Z,57.34
2023-03-21T10:55:28.815Z,57.06
2023-03-21T10:58:06.975Z,56.72
2023-03-21T11:00:41.464Z,55.98
2023-03-21T11:03:23.820Z,55.98
2023-03-21T11:06:04.199Z,55.79
2023-03-21T11:08:42.401Z,55.80
2023-03-21T11:11:12.511Z,55.67
2023-03-21T11:13:45.006Z,55.68
2023-03-21T11:16:24.384Z,55.24
2023-03-21T11:18:58.557Z,55.12
2023-03-21T11:21:29.913Z,55.32
2023-03-21T11:24:00.495Z,55.03
2023-03-21T11:26:36.707Z,54.44
2023-03-21T11:29:23.223Z,54.60
2023-03-21T11:31:53.788Z,54.69
2023-03-21T11:34:34.421Z,54.04
2023-03-21T11:37:05.344Z,54.23
2023-03-21T11:39:39.844Z,54.38
2023-03-21T11:42:29.576Z,54.47
2023-03-21T11:45:14.033Z,54.04
2023-03-21T11:47:43.158Z,54.17
2023-03-21T11:50:32.644Z,53.85
2023-03-21T11:53:31.289Z,54.04
2023-03-21T11:56:11.759Z,53.83
2023-03-21T11:58:52.577Z,53.93
2023-03-21T12:01:33.459Z,53.78
2023-03-21T12:04:39.691Z,53.70
2023-03-21T12:07:25.097Z,54.08
2023-03-21T12:10:09.119Z,54.06
2023-03-21T12:12:46.484Z,53.97
2023-03-21T12:15:23.314Z,53.73
2023-03-21T12:18:01.952Z,53.82
2023-03-21T12:20:45.761Z,53.98
2023-03-21T12:23:41.085Z,54.02
2023-03-21T12:26:24.257Z,53.78
2023-03-21T12:29:16.192Z,53.44
2023-03-21T12:32:06.491Z,53.43
2023-03-21T12:34:57.554Z,53.11
2023-03-21T12:37:35.439Z,53.05
2023-03-21T12:40:16.670Z,52.95
2023-03-21T12:43:00.685Z,53.07
2023-03-21T12:45:46.481Z,52.75
2023-03-21T12:48:25.493Z,52.48
2023-03-21T12:50:57.465Z,52.42
2023-03-21T12:53:31.063Z,52.59
2023-03-21T12:56:06.957Z,53.01
2023-03-21T12:58:45.103Z,52.98
2023-03-21T13:01:20.006Z,52.51
2023-03-21T13:03:55.726Z,52.53
2023-03-21T13:06:28.832Z,52.39
2023-03-21T13:09:07.725Z,52.50
2023-03-21T13:11:38.773Z,52.36
2023-03-21T13:14:14.351Z,52.40
2023-03-21T13:16:49.364Z,52.49
2023-03-21T13:19:27.775Z,52.83
2023-03-21T13:22:07.903Z,52.61
2023-03-21T13:24:48.600Z,52.63
2023-03-21T13:27:33.761Z,52.82
2023-03-21T13:30:07.400Z,52.55
2023-03-21T13:32:39.962Z,52.13
2023-03-21T13:35:20.390Z,51.78
2023-03-21T13:37:57.782Z,52.12
2023-03-21T13:40:36.522Z,52.15
2023-03-21T13:43:27.569Z,52.30
2023-03-21T13:46:06.266Z,52.38
2023-03-21T13:48:57.759Z,52.13
2023-03-21T13:51:46.436Z,52.03
2023-03-21T13:54:29.744Z,51.99
2023-03-21T13:57:05.332Z,51.83
2023-03-21T13:59:45.424Z,51.68
2023-03-21T14:02:31.588Z,51.78
2023-03-21T14:05:07.047Z,51.56
2023-03-21T14:07:42.076Z,51.22
2023-03-21T14:10:24.670Z,51.27
2023-03-21T14:12:55.879Z,51.06
2023-03-21T14:15:28.384Z,51.01
2023-03-21T14:18:06.403Z,50.92
2023-03-21T14:20:46.941Z,50.99
2023-03-21T14:23:18.916Z,50.92
2023-03-21T14:25:49.324Z,51.23
2023-03-21T14:28:24.062Z,51.06
2023-03-21T14:30:58.084Z,51.19
2023-03-21T14:33:36.684Z,50.59
2023-03-21T14:36:13.296Z,50.74
2023-03-21T14:38:44.004Z,50.78
2023-03-21T14:41:25.983Z,50.86
2023-03-21T14:44:17.425Z,51.10
2023-03-21T14:46:47.948Z,51.22
2023-03-21T14:49:23.417Z,51.28
2023-03-21T14:51:56.939Z,51.10
2023-03-21T14:54:29.021Z,51.39
2023-03-21T14:57:03.472Z,51.32
2023-03-21T14:59:37.167Z,51.38
2023-03-21T15:02:16.444Z,51.37
2023-03-21T15:04:49.454Z,51.13
2023-03-21T15:07:30.319Z,51.44
2023-03-21T15:10:04.733Z,51.75
2023-03-21T15:12:35.877Z,51.53
2023-03-21T15:15:11.307Z,51.37
2023-03-21T15:17:41.845Z,51.15
2023-03-21T15:20:16.821Z,51.25
2023-03-21T15:22:50.518Z,51.38
2023-03-21T15:25:23.636Z,51.53
2023-03-21T15:27:55.737Z,51.23
2023-03-21T15:30:29.120Z,51.30
2023-03-21T15:33:06.446Z,51.35
2023-03-21T15:35:42.856Z,51.54
2023-03-21T15:38:29.311Z,51.56
2023-03-21T15:41:17.275Z,51.40
2023-03-21T15:43:48.870Z,51.52
2023-03-21T15:46:33.681Z,51.33
2023-03-21T15:49:19.117Z,51.25
2023-03-21T15:51:53.427Z,51.42
2023-03-21T15:54:27.590Z,51.59
2023-03-21T15:57:03.542Z,51.61
2023-03-21T15:59:38.855Z,51.95
2023-03-21T16:02:18.533Z,51.84
2023-03-21T16:04:59.997Z,51.90
2023-03-21T16:07:34.486Z,51.99
2023-03-21T16:10:06.182Z,52.29
2023-03-21T16:12:36.671Z,52.18
2023-03-21T16:15:08.803Z,52.05
2023-03-21T16:17:39.718Z,52.01
2023-03-21T16:20:21.295Z,52.20
2023-03-21T16:22:51.937Z,51.96
2023-03-21T16:25:22.855Z,52.16
2023-03-21T16:27:53.392Z,52.09
2023-03-21T16:30:24.547Z,52.12
2023-03-21T16:32:55.050Z,52.15
2023-03-21T16:35:26.396Z,52.31
2023-03-21T16:37:56.876Z,52.24
2023-03-21T16:40:32.661Z,52.18
2023-03-21T16:43:03.422Z,52.39
2023-03-21T16:45:34.068Z,52.25
2023-03-21T16:48:05.393Z,52.30
2023-03-21T16:50:37.803Z,52.41
2023-03-21T16:53:08.583Z,52.13
2023-03-21T16:55:39.368Z,52.26
2023-03-21T16:58:09.873Z,51.99
2023-03-21T17:00:40.510Z,52.05
2023-03-21T17:03:19.023Z,52.03
2023-03-21T17:05:49.951Z,52.09
2023-03-21T17:08:21.955Z,51.95
2023-03-21T17:10:50.989Z,51.94
2023-03-21T17:13:21.567Z,52.01
2023-03-21T17:15:52.048Z,52.21
2023-03-21T17:18:22.545Z,52.17
2023-03-21T17:20:53.010Z,52.77
2023-03-21T17:23:23.519Z,53.52
2023-03-21T17:25:53.937Z,54.23
2023-03-21T17:28:24.433Z,54.30
2023-03-21T17:30:55.182Z,55.32
2023-03-21T17:33:25.839Z,56.09
2023-03-21T17:35:56.420Z,55.45
2023-03-21T17:38:26.965Z,55.36
2023-03-21T17:41:00.242Z,55.58
2023-03-21T17:43:31.345Z,55.74
2023-03-21T17:46:01.956Z,55.67
2023-03-21T17:48:32.750Z,56.11
2023-03-21T17:51:03.385Z,56.57
2023-03-21T17:53:33.875Z,56.58
2023-03-21T17:56:04.336Z,56.67
2023-03-21T17:58:34.828Z,57.39
2023-03-21T18:01:05.808Z,56.99
2023-03-21T18:03:36.294Z,57.22
2023-03-21T18:06:07.824Z,57.07
2023-03-21T18:08:38.402Z,57.09
2023-03-21T18:11:10.301Z,57.47
2023-03-21T18:13:41.333Z,57.53
2023-03-21T18:16:14.774Z,57.75
2023-03-21T18:18:46.726Z,58.10
2023-03-21T18:21:18.946Z,58.35
2023-03-21T18:23:51.083Z,58.66
2023-03-21T18:26:24.010Z,58.75
2023-03-21T18:29:47.364Z,59.26
2023-03-21T18:31:57.529Z,59.06
2023-03-21T18:34:35.024Z,59.47
2023-03-21T18:37:07.566Z,59.44
2023-03-21T18:39:39.191Z,59.39
2023-03-21T18:42:16.667Z,59.49
2023-03-21T18:44:48.193Z,59.70
2023-03-21T18:47:19.176Z,59.43
2023-03-21T18:52:40.937Z,59.80
2023-03-21T18:55:14.741Z,59.87
2023-03-21T18:57:45.873Z,59.52
2023-03-21T19:00:21.784Z,59.40
2023-03-21T19:03:04.273Z,59.27
2023-03-21T19:05:41.152Z,58.98
2023-03-21T19:08:11.698Z,59.29
2023-03-21T19:10:42.363Z,58.97
2023-03-21T19:13:12.871Z,58.80
2023-03-21T19:15:43.485Z,59.14
2023-03-21T19:21:05.674Z,59.34
2023-03-21T19:24:08.030Z,59.10
2023-03-21T19:26:28.129Z,59.28
2023-03-21T19:28:58.633Z,59.31
2023-03-21T19:31:29.241Z,59.56
2023-03-21T19:34:00.125Z,59.72
2023-03-21T19:36:31.155Z,59.93
2023-03-21T19:39:05.085Z,59.81
2023-03-21T19:41:36.363Z,59.95
2023-03-21T19:44:07.373Z,59.81
2023-03-21T19:46:37.847Z,60.51
2023-03-21T19:49:08.570Z,60.18
2023-03-21T19:51:39.384Z,59.97
2023-03-21T19:54:10.414Z,60.11
2023-03-21T19:56:47.067Z,60.64
2023-03-21T19:59:20.577Z,60.66
2023-03-21T20:01:56.482Z,60.98
2023-03-21T20:04:29.073Z,60.64
2023-03-21T20:07:00.272Z,60.75
2023-03-21T20:09:50.456Z,60.52
2023-03-21T20:12:22.112Z,60.90
2023-03-21T20:15:01.609Z,60.69
2023-03-21T20:17:40.033Z,60.61
2023-03-21T20:20:14.995Z,60.57
2023-03-21T20:23:07.435Z,60.53
2023-03-21T20:25:41.960Z,60.25
2023-03-21T20:28:16.871Z,60.30
2023-03-21T20:30:58.611Z,60.19
2023-03-21T20:33:29.526Z,60.25
2023-03-21T20:38:53.874Z,60.17
2023-03-21T20:41:24.566Z,60.16
2023-03-21T20:46:52.470Z,60.34
2023-03-21T20:49:24.483Z,60.30
2023-03-21T20:54:47.714Z,60.52
2023-03-21T20:57:18.324Z,60.26
2023-03-21T20:59:48.793Z,60.43
2023-03-21T21:02:19.316Z,60.32
2023-03-21T21:05:21.461Z,60.54
2023-03-21T21:07:41.844Z,60.38
2023-03-21T21:10:15.328Z,60.31
2023-03-21T21:12:46.357Z,60.44
2023-03-21T21:15:17.734Z,60.64
2023-03-21T21:18:06.700Z,60.54
2023-03-21T21:20:38.852Z,60.61
2023-03-21T21:23:09.876Z,60.77
2023-03-21T21:25:40.406Z,60.71
2023-03-21T21:28:11.836Z,60.41
2023-03-21T21:30:42.841Z,60.70
2023-03-21T21:33:15.150Z,60.51
2023-03-21T21:35:47.870Z,60.73
2023-03-21T21:38:19.944Z,60.66
2023-03-21T21:40:49.861Z,60.72
2023-03-21T21:43:21.257Z,60.77
2023-03-21T21:45:52.494Z,61.08
2023-03-21T21:48:23.275Z,60.75
2023-03-21T21:50:54.387Z,60.82
2023-03-21T21:53:28.366Z,60.77
2023-03-21T21:56:02.065Z,60.67
2023-03-21T21:58:33.794Z,60.77
2023-03-21T22:01:04.546Z,60.62
2023-03-21T22:03:40.971Z,60.36
2023-03-21T22:06:12.175Z,60.25
2023-03-21T22:08:47.243Z,60.19
2023-03-21T22:11:18.688Z,60.28
2023-03-21T22:13:49.632Z,60.18
2023-03-21T22:16:20.160Z,60.37
2023-03-21T22:18:50.666Z,60.61
2023-03-21T22:21:21.259Z,60.60
2023-03-21T22:23:51.701Z,60.69
2023-03-21T22:26:22.212Z,60.57
2023-03-21T22:28:52.818Z,60.64
2023-03-21T22:31:23.933Z,60.78
2023-03-21T22:33:54.408Z,60.37
2023-03-21T22:36:25.033Z,60.84
2023-03-21T22:38:55.810Z,60.73
2023-03-21T22:41:26.266Z,60.64
2023-03-21T22:43:56.729Z,60.56
2023-03-21T22:46:27.703Z,60.69
2023-03-21T22:48:58.183Z,60.42
2023-03-21T22:51:28.745Z,60.75
2023-03-21T22:53:59.167Z,60.30
2023-03-21T22:56:29.693Z,60.43
2023-03-21T22:59:01.084Z,60.58
2023-03-21T23:01:32.148Z,60.90
2023-03-21T23:04:02.854Z,60.62
2023-03-21T23:06:33.577Z,60.90
2023-03-21T23:09:04.084Z,61.15
2023-03-21T23:11:34.591Z,60.70
2023-03-21T23:14:07.926Z,60.77
2023-03-21T23:16:38.732Z,60.65
2023-03-21T23:19:10.435Z,60.64
2023-03-21T23:21:41.575Z,60.56
2023-03-21T23:24:12.933Z,60.72
2023-03-21T23:26:43.718Z,60.81
2023-03-21T23:29:14.317Z,60.50
2023-03-21T23:31:44.818Z,60.45
2023-03-21T23:34:15.713Z,60.48
2023-03-21T23:36:46.226Z,60.64
2023-03-21T23:39:18.554Z,60.62
2023-03-21T23:41:49.037Z,60.94
2023-03-21T23:44:19.545Z,60.44
2023-03-21T23:46:50.006Z,60.73
2023-03-21T23:49:20.536Z,60.90
2023-03-21T23:51:51.417Z,60.86
2023-03-21T23:54:21.901Z,60.94
2023-03-21T23:56:52.379Z,60.92
2023-03-21T23:59:22.867Z,60.80
